createdAt,value
2019-01-29T00:03:22.582Z,62.05
2019-01-29T00:07:26.807Z,62.35
2019-01-29T00:11:31.085Z,62.59
2019-01-29T00:15:35.326Z,62.78
2019-01-29T00:19:39.597Z,63.08
2019-01-29T00:23:43.892Z,63.33
2019-01-29T00:27:48.479Z,63.51
2019-01-29T00:31:52.764Z,63.49
2019-01-29T00:35:57.003Z,63.72
2019-01-29T00:40:02.208Z,63.65
2019-01-29T00:44:06.496Z,63.83
2019-01-29T00:48:10.787Z,63.88
2019-01-29T00:52:15.029Z,64.08
2019-01-29T00:56:19.312Z,64.11
2019-01-29T01:00:24.096Z,64.15
2019-01-29T01:04:28.354Z,64.28
2019-01-29T01:08:32.632Z,64.40
2019-01-29T01:12:36.916Z,64.79
2019-01-29T01:16:41.211Z,64.75
2019-01-29T01:20:45.468Z,64.76
2019-01-29T01:24:49.843Z,64.91
2019-01-29T01:28:54.128Z,64.92
2019-01-29T01:32:58.415Z,65.10
2019-01-29T01:37:02.783Z,65.03
2019-01-29T01:41:07.265Z,64.98
2019-01-29T01:45:11.922Z,65.06
2019-01-29T01:49:16.294Z,65.02
2019-01-29T01:53:21.187Z,64.98
2019-01-29T01:57:25.448Z,65.05
2019-01-29T02:01:29.766Z,65.06
2019-01-29T02:05:34.070Z,65.12
2019-01-29T02:09:38.310Z,65.21
2019-01-29T02:13:42.559Z,65.29
2019-01-29T02:17:46.907Z,65.26
2019-01-29T02:21:51.175Z,65.30
2019-01-29T02:25:55.811Z,65.40
2019-01-29T02:30:00.150Z,65.37
2019-01-29T02:34:04.524Z,65.48
2019-01-29T02:38:08.816Z,65.55
2019-01-29T02:42:13.117Z,65.47
2019-01-29T02:46:17.443Z,65.63
2019-01-29T02:50:21.794Z,65.66
2019-01-29T02:54:26.049Z,65.71
2019-01-29T02:58:30.346Z,65.79
2019-01-29T03:02:34.994Z,65.80
2019-01-29T03:06:39.277Z,65.84
2019-01-29T03:10:43.539Z,65.82
2019-01-29T03:14:47.816Z,65.91
2019-01-29T03:18:52.084Z,66.04
2019-01-29T03:22:56.316Z,66.06
2019-01-29T03:27:00.604Z,66.08
2019-01-29T03:31:04.841Z,66.36
2019-01-29T03:35:09.367Z,66.19
2019-01-29T03:39:13.550Z,66.29
2019-01-29T03:43:17.853Z,66.26
2019-01-29T03:47:22.107Z,66.37
2019-01-29T03:51:26.330Z,66.23
2019-01-29T03:55:30.630Z,66.40
2019-01-29T03:59:34.866Z,66.34
2019-01-29T04:03:39.446Z,66.47
2019-01-29T04:07:43.671Z,66.36
2019-01-29T04:11:47.965Z,66.41
2019-01-29T04:15:52.351Z,66.43
2019-01-29T04:19:56.768Z,66.49
2019-01-29T04:24:00.989Z,66.56
2019-01-29T04:28:05.255Z,66.60
2019-01-29T04:32:09.544Z,66.74
2019-01-29T04:36:13.820Z,66.75
2019-01-29T04:40:19.657Z,66.81
2019-01-29T04:44:23.963Z,67.04
2019-01-29T04:48:28.259Z,67.08
2019-01-29T04:52:32.499Z,67.03
2019-01-29T04:56:37.051Z,67.13
2019-01-29T05:00:41.375Z,67.07
2019-01-29T05:04:45.814Z,67.11
2019-01-29T05:08:50.954Z,67.14
2019-01-29T05:12:55.508Z,67.05
2019-01-29T05:16:59.736Z,67.06
2019-01-29T05:21:05.665Z,67.07
2019-01-29T05:25:10.526Z,67.10
2019-01-29T05:29:14.837Z,67.09
2019-01-29T05:33:19.154Z,67.01
2019-01-29T05:37:23.469Z,66.95
2019-01-29T05:41:27.789Z,67.39
2019-01-29T05:45:32.074Z,66.99
2019-01-29T05:49:36.592Z,67.02
2019-01-29T05:53:40.842Z,67.04
2019-01-29T05:57:45.067Z,66.94
2019-01-29T06:01:49.316Z,67.04
2019-01-29T06:05:53.578Z,67.04
2019-01-29T06:09:57.819Z,66.89
2019-01-29T06:14:02.074Z,66.92
2019-01-29T06:18:06.463Z,66.92
2019-01-29T06:22:10.707Z,66.84
2019-01-29T06:26:15.013Z,66.77
2019-01-29T06:30:20.488Z,66.78
2019-01-29T06:34:24.762Z,66.93
2019-01-29T06:38:29.275Z,66.88
2019-01-29T06:42:33.577Z,66.99
2019-01-29T06:46:38.261Z,67.08
2019-01-29T06:50:42.518Z,67.08
2019-01-29T06:54:46.746Z,67.16
2019-01-29T06:58:51.023Z,67.05
2019-01-29T07:02:55.401Z,67.00
2019-01-29T07:06:59.679Z,66.88
2019-01-29T07:11:03.881Z,66.68
2019-01-29T07:15:11.358Z,66.65
2019-01-29T07:19:27.369Z,66.77
2019-01-29T07:23:31.667Z,66.53
2019-01-29T07:27:35.943Z,66.23
2019-01-29T07:31:40.516Z,66.21
2019-01-29T07:35:44.811Z,65.84
2019-01-29T07:39:49.107Z,65.75
2019-01-29T07:43:53.360Z,65.14
2019-01-29T07:47:57.633Z,64.97
2019-01-29T07:52:01.885Z,64.48
2019-01-29T07:56:06.242Z,64.51
2019-01-29T08:00:11.268Z,64.64
2019-01-29T08:04:15.540Z,64.56
2019-01-29T08:08:19.814Z,64.20
2019-01-29T08:12:24.060Z,64.24
2019-01-29T08:16:28.336Z,63.87
2019-01-29T08:20:32.603Z,63.85
2019-01-29T08:24:36.861Z,63.76
2019-01-29T08:28:41.113Z,63.51
2019-01-29T08:32:45.395Z,63.39
2019-01-29T08:36:49.613Z,63.46
2019-01-29T08:40:53.890Z,62.92
2019-01-29T08:44:58.150Z,62.51
2019-01-29T08:49:02.465Z,62.85
2019-01-29T08:53:06.674Z,62.25
2019-01-29T08:57:10.928Z,62.04
2019-01-29T09:01:15.151Z,62.01
2019-01-29T09:05:19.562Z,61.90
2019-01-29T09:09:23.839Z,62.09
2019-01-29T09:13:28.447Z,62.33
2019-01-29T09:17:32.706Z,61.96
2019-01-29T09:21:36.955Z,61.61
2019-01-29T09:25:41.202Z,61.53
2019-01-29T09:29:45.454Z,61.41
2019-01-29T09:33:49.715Z,61.07
2019-01-29T09:37:54.001Z,61.20
2019-01-29T09:41:58.257Z,61.47
2019-01-29T09:46:02.841Z,61.33
2019-01-29T09:50:07.871Z,60.86
2019-01-29T09:54:12.633Z,60.15
2019-01-29T09:58:16.895Z,60.06
2019-01-29T10:02:21.139Z,59.79
2019-01-29T10:06:25.427Z,58.12
2019-01-29T10:10:29.961Z,59.22
2019-01-29T10:14:34.278Z,57.97
2019-01-29T10:18:38.599Z,58.70
2019-01-29T10:22:42.937Z,58.25
2019-01-29T10:26:47.185Z,58.36
2019-01-29T10:30:51.526Z,58.36
2019-01-29T10:34:55.997Z,58.44
2019-01-29T10:39:00.255Z,58.37
2019-01-29T10:43:04.619Z,58.32
2019-01-29T10:47:08.926Z,58.22
2019-01-29T10:51:13.163Z,56.92
2019-01-29T10:55:18.011Z,56.85
2019-01-29T10:59:22.282Z,57.25
2019-01-29T11:03:26.912Z,56.91
2019-01-29T11:07:31.469Z,56.35
2019-01-29T11:11:35.861Z,55.72
2019-01-29T11:15:41.787Z,56.22
2019-01-29T11:19:46.107Z,54.16
2019-01-29T11:23:50.638Z,53.96
2019-01-29T11:27:54.915Z,54.14
2019-01-29T11:31:59.175Z,54.24
2019-01-29T11:36:03.492Z,53.09
2019-01-29T11:40:11.599Z,53.21
2019-01-29T11:44:15.900Z,53.40
2019-01-29T11:48:20.204Z,54.04
2019-01-29T11:52:24.498Z,54.31
2019-01-29T11:56:28.802Z,53.59
2019-01-29T12:00:40.922Z,54.08
2019-01-29T12:04:45.141Z,52.74
2019-01-29T12:08:49.717Z,53.94
2019-01-29T12:12:53.946Z,54.19
2019-01-29T12:16:58.236Z,54.23
2019-01-29T12:21:02.460Z,54.47
2019-01-29T12:25:07.001Z,54.30
2019-01-29T12:29:11.258Z,54.31
2019-01-29T12:33:15.649Z,54.70
2019-01-29T12:37:19.899Z,53.83
2019-01-29T12:41:24.207Z,54.48
2019-01-29T12:45:28.533Z,54.07
2019-01-29T12:49:32.817Z,54.56
2019-01-29T12:53:43.600Z,54.71
2019-01-29T12:57:48.102Z,54.76
2019-01-29T13:01:52.648Z,54.65
2019-01-29T13:05:56.895Z,55.09
2019-01-29T13:10:01.482Z,55.32
2019-01-29T13:14:06.338Z,55.81
2019-01-29T13:18:12.134Z,55.90
2019-01-29T13:22:16.839Z,55.91
2019-01-29T13:26:21.145Z,56.10
2019-01-29T13:30:30.451Z,56.06
2019-01-29T13:34:34.843Z,56.11
2019-01-29T13:38:39.151Z,55.98
2019-01-29T13:42:43.442Z,55.83
2019-01-29T13:46:47.775Z,56.48
2019-01-29T13:50:57.542Z,56.17
2019-01-29T13:55:02.109Z,56.40
2019-01-29T13:59:06.462Z,56.20
2019-01-29T14:03:11.580Z,56.55
2019-01-29T14:07:16.159Z,56.66
2019-01-29T14:11:20.454Z,56.70
2019-01-29T14:15:35.787Z,57.07
2019-01-29T14:19:40.364Z,57.26
2019-01-29T14:23:44.672Z,57.37
2019-01-29T14:27:48.920Z,57.50
2019-01-29T14:31:53.558Z,57.73
2019-01-29T14:35:58.209Z,57.56
2019-01-29T14:40:13.676Z,57.34
2019-01-29T14:44:26.916Z,57.37
2019-01-29T14:48:31.159Z,57.64
2019-01-29T14:52:35.451Z,57.75
2019-01-29T14:56:39.699Z,57.94
2019-01-29T15:00:43.933Z,57.95
2019-01-29T15:04:48.257Z,57.77
2019-01-29T15:08:52.537Z,58.03
2019-01-29T15:12:56.791Z,58.15
2019-01-29T15:17:22.929Z,59.59
2019-01-29T15:21:27.201Z,59.36
2019-01-29T15:25:31.893Z,59.35
2019-01-29T15:29:36.202Z,58.21
2019-01-29T15:33:40.482Z,57.51
2019-01-29T15:37:44.750Z,57.76
2019-01-29T15:41:49.083Z,57.82
2019-01-29T15:45:53.354Z,57.92
2019-01-29T15:49:57.636Z,57.82
2019-01-29T15:54:01.988Z,57.14
2019-01-29T15:58:08.117Z,57.15
2019-01-29T16:02:12.399Z,57.40
2019-01-29T16:06:16.711Z,57.24
2019-01-29T16:10:24.191Z,57.18
2019-01-29T16:14:28.471Z,57.61
2019-01-29T16:18:33.028Z,57.53
2019-01-29T16:22:37.268Z,57.30
2019-01-29T16:26:41.655Z,57.44
2019-01-29T16:30:46.089Z,57.63
2019-01-29T16:34:51.023Z,57.74
2019-01-29T16:38:55.468Z,57.78
2019-01-29T16:42:59.852Z,58.33
2019-01-29T16:47:04.077Z,59.12
2019-01-29T16:51:08.481Z,59.18
2019-01-29T16:55:15.053Z,59.16
2019-01-29T16:59:19.331Z,59.38
2019-01-29T17:03:23.580Z,59.54
2019-01-29T17:07:27.966Z,59.64
2019-01-29T17:11:32.243Z,59.79
2019-01-29T17:15:36.645Z,60.11
2019-01-29T17:19:40.868Z,60.31
2019-01-29T17:23:45.235Z,60.53
2019-01-29T17:27:49.816Z,60.58
2019-01-29T17:31:54.063Z,60.62
2019-01-29T17:35:58.334Z,60.76
2019-01-29T17:40:02.694Z,60.85
2019-01-29T17:44:07.338Z,60.95
2019-01-29T17:48:11.687Z,60.93
2019-01-29T17:52:15.959Z,60.84
2019-01-29T17:56:20.192Z,61.13
2019-01-29T18:00:29.166Z,61.32
2019-01-29T18:04:33.495Z,61.35
2019-01-29T18:08:37.781Z,61.31
2019-01-29T18:12:42.059Z,61.31
2019-01-29T18:16:46.607Z,61.44
2019-01-29T18:20:52.227Z,61.37
2019-01-29T18:24:56.627Z,61.50
2019-01-29T18:29:01.942Z,61.76
2019-01-29T18:33:06.624Z,61.65
2019-01-29T18:37:10.901Z,61.71
2019-01-29T18:41:15.239Z,61.68
2019-01-29T18:45:19.531Z,61.68
2019-01-29T18:49:24.091Z,61.80
2019-01-29T18:53:28.438Z,62.12
2019-01-29T18:57:32.694Z,62.22
2019-01-29T19:01:37.075Z,62.50
2019-01-29T19:05:41.428Z,63.22
2019-01-29T19:09:46.065Z,63.09
2019-01-29T19:13:50.371Z,63.08
2019-01-29T19:17:54.892Z,63.18
2019-01-29T19:21:59.358Z,63.37
2019-01-29T19:26:03.609Z,63.64
2019-01-29T19:30:17.288Z,63.75
2019-01-29T19:34:21.563Z,64.05
2019-01-29T19:38:25.864Z,64.21
2019-01-29T19:42:30.147Z,64.15
2019-01-29T19:46:34.471Z,64.22
2019-01-29T19:50:38.762Z,64.31
2019-01-29T19:54:43.067Z,64.37
2019-01-29T19:58:47.294Z,64.32
2019-01-29T20:02:51.635Z,64.48
2019-01-29T20:06:55.887Z,64.24
2019-01-29T20:11:00.230Z,64.21
2019-01-29T20:15:05.454Z,64.76
2019-01-29T20:19:09.768Z,65.22
2019-01-29T20:23:14.050Z,65.24
2019-01-29T20:27:18.381Z,65.58
2019-01-29T20:31:22.719Z,65.59
2019-01-29T20:35:27.376Z,65.62
2019-01-29T20:39:34.924Z,65.63
2019-01-29T20:43:37.683Z,65.76
2019-01-29T20:47:42.516Z,65.80
2019-01-29T20:51:46.773Z,65.71
2019-01-29T20:55:51.338Z,65.72
2019-01-29T20:59:55.607Z,65.66
2019-01-29T21:03:59.904Z,65.66
2019-01-29T21:08:04.757Z,65.75
2019-01-29T21:12:09.020Z,65.82
2019-01-29T21:16:13.357Z,65.80
2019-01-29T21:20:19.726Z,65.67
2019-01-29T21:24:24.263Z,65.73
2019-01-29T21:28:28.536Z,65.78
2019-01-29T21:32:32.816Z,65.83
2019-01-29T21:36:37.035Z,66.01
2019-01-29T21:40:41.653Z,65.96
2019-01-29T21:44:45.926Z,66.06
2019-01-29T21:48:50.193Z,66.03
2019-01-29T21:52:54.447Z,66.55
2019-01-29T21:56:58.741Z,66.74
2019-01-29T22:01:03.330Z,66.89
2019-01-29T22:05:10.237Z,67.09
2019-01-29T22:09:14.557Z,67.08
2019-01-29T22:13:18.828Z,66.92
2019-01-29T22:17:23.325Z,66.73
2019-01-29T22:21:27.588Z,66.49
2019-01-29T22:25:31.913Z,66.55
2019-01-29T22:29:36.180Z,66.55
2019-01-29T22:33:40.465Z,66.47
2019-01-29T22:37:44.691Z,66.58
2019-01-29T22:41:49.239Z,66.65
2019-01-29T22:45:53.515Z,66.96
2019-01-29T22:49:57.783Z,67.36
2019-01-29T22:54:02.072Z,67.69
2019-01-29T22:58:06.924Z,67.77
2019-01-29T23:02:11.584Z,67.79
2019-01-29T23:06:25.782Z,67.85
2019-01-29T23:10:30.077Z,67.99
2019-01-29T23:14:34.330Z,67.94
2019-01-29T23:18:38.616Z,68.33
2019-01-29T23:22:42.890Z,68.63
2019-01-29T23:26:47.110Z,68.53
2019-01-29T23:30:51.427Z,68.73
2019-01-29T23:34:55.648Z,68.84
2019-01-29T23:38:59.946Z,68.85
2019-01-29T23:43:04.752Z,68.67
2019-01-29T23:47:09.059Z,68.71
2019-01-29T23:51:13.396Z,68.73
2019-01-29T23:55:17.682Z,68.92
2019-01-29T23:59:22.275Z,69.07
